Flight Track Log - Related Links

Times and Time Zones

All times are in EST time to prevent confusion due to time zone crossing. See the CCA4486 flight status page for this flight to view local times or setup timezone preferences in your user account.

Time Position Orientation Groundspeed Altitude Reporting Facility
EST Latitude Longitude Course Direction KTS MPH feet Rate Location/Type
Sun 05:54:00 AM 32.4024 103.7367 174° South  Level Estimated
Sun 05:55:00 AM 32.2887 103.7501 174° South  Level Estimated
Sun 05:56:00 AM 32.1751 103.7634 174° South  Level Estimated
Sun 05:57:00 AM 32.0614 103.7767 174° South  Level Estimated
Sun 05:58:00 AM 31.9478 103.7900 174° South  Level Estimated
Sun 05:59:00 AM 31.8341 103.8032 174° South  Level Estimated
Sun 06:00:00 AM 31.7204 103.8164 174° South  Level Estimated
Sun 06:01:00 AM 31.6068 103.8295 174° South  Level Estimated
Sun 06:02:00 AM 31.4931 103.8426 174° South  Level Estimated
Sun 06:03:00 AM 31.3794 103.8557 174° South  Level Estimated
Sun 06:04:00 AM 31.2658 103.8688 174° South  Level Estimated
Sun 06:05:00 AM 31.1521 103.8818 174° South  Level Estimated
Sun 06:06:00 AM 31.0384 103.8948 174° South  Level Estimated
Sun 06:07:00 AM 30.9247 103.9078 174° South  Level Estimated
Sun 06:08:00 AM 30.8111 103.9207 174° South  Level Estimated
Sun 06:09:00 AM 30.6974 103.9336 174° South  Level Estimated
Sun 06:10:00 AM 30.5837 103.9465 174° South  Level Estimated
Sun 06:11:00 AM 30.5785 103.9471 174° South  Level Estimated
Sun 06:12:00 AM 30.5785 103.9471 240° Southwest  Level Estimated
Sun 06:13:00 AM 30.5785 103.9471 240° Southwest  Level Estimated
Sun 06:14:00 AM 30.5785 103.9471 240° Southwest  Level Estimated
Sun 06:15:00 AM 30.5785 103.9471 240° Southwest  Level Estimated
Sun 06:16:00 AM 30.5785 103.9471 240° Southwest  Level Estimated
Sun 06:17:00 AM 30.5785 103.9471 240° Southwest  Level Estimated
Sun 06:18:00 AM 30.5785 103.9471 240° Southwest  Level Estimated
Sun 06:19:00 AM 30.5785 103.9471 240° Southwest  Level Estimated
Sun 06:20:00 AM 30.5785 103.9471 240° Southwest  Level Estimated
Sun 06:21:00 AM 30.5785 103.9471 240° Southwest  Level Estimated
Sun 06:22:00 AM 30.5785 103.9471 240° Southwest  Level Estimated
Sun 06:23:00 AM 30.5785 103.9471 240° Southwest  Level Estimated
Sun 06:24:00 AM 30.5785 103.9471 240° Southwest  Level Estimated
Sun 06:25:00 AM 30.5785 103.9471 240° Southwest  Level Estimated
Sun 06:26:00 AM 30.5785 103.9471 240° Southwest  Level Estimated

Login

Don't have an account? Register now (free) for customized features, flight alerts, and more!